Arrasate-Mondragon, Spain
Current Conditions -  °F | °C
As of 4:00 AM on Tuesday 21 Oct 2014 (Local Time) from LEVT Reporting Station
Clear Clear  
Wind Chill: 50°   Ceiling: Unl
Heat Index: 50°   Visibility: 6mi
Dew Point: 48°   Wind: 1mph
Humidity: 94%   Direction: 40°NE
Pressure: 30.24"   Gusts: NA
Location:  43.06°N, 2.49°W
Report Text: LEVT 210200Z 04001KT CAVOK 10/09 Q1024
Loading
Personal Weather Stations






























Interactive Weather Map
Tropical Storm Tracking
New forecast layout! Learn more

10-Day Weather Forecast

Advertisements
Track Severe Weather on mobile